createdAt,value
2022-08-25T00:02:19.124Z,6.40
2022-08-25T00:06:01.079Z,7.10
2022-08-25T00:09:45.699Z,5.67
2022-08-25T00:13:29.676Z,6.63
2022-08-25T00:17:11.568Z,4.65
2022-08-25T00:20:53.727Z,5.55
2022-08-25T00:24:35.955Z,6.60
2022-08-25T00:28:18.365Z,5.28
2022-08-25T00:32:01.067Z,6.25
2022-08-25T00:35:43.911Z,4.60
2022-08-25T00:39:27.704Z,5.60
2022-08-25T00:43:09.849Z,5.15
2022-08-25T00:46:54.965Z,5.90
2022-08-25T00:50:37.132Z,7.07
2022-08-25T00:54:23.612Z,4.97
2022-08-25T00:58:14.677Z,5.53
2022-08-25T01:01:59.028Z,5.68
2022-08-25T01:05:43.422Z,5.65
2022-08-25T01:09:25.549Z,8.60
2022-08-25T01:13:20.393Z,6.13
2022-08-25T01:17:02.679Z,8.40
2022-08-25T01:20:47.004Z,7.05
2022-08-25T01:24:43.508Z,6.93
2022-08-25T01:28:25.761Z,7.65
2022-08-25T01:32:12.308Z,7.60
2022-08-25T01:35:55.058Z,8.68
2022-08-25T01:39:37.092Z,10.43
2022-08-25T01:43:37.926Z,8.88
2022-08-25T01:47:20.329Z,9.05
2022-08-25T01:51:02.227Z,7.93
2022-08-25T01:54:44.310Z,6.95
2022-08-25T01:58:32.111Z,6.72
2022-08-25T02:02:14.512Z,8.10
2022-08-25T02:05:59.356Z,5.85
2022-08-25T02:09:41.405Z,6.20
2022-08-25T02:13:31.170Z,5.90
2022-08-25T02:17:13.879Z,10.65
2022-08-25T02:20:59.260Z,6.05
2022-08-25T02:24:41.580Z,6.28
2022-08-25T02:28:24.123Z,6.43
2022-08-25T02:32:06.453Z,7.38
2022-08-25T02:35:48.386Z,8.35
2022-08-25T02:39:30.335Z,8.07
2022-08-25T02:43:12.306Z,7.88
2022-08-25T02:46:54.234Z,7.53
2022-08-25T02:50:36.127Z,6.93
2022-08-25T02:54:18.156Z,10.27
2022-08-25T02:58:00.125Z,9.00
2022-08-25T03:01:42.163Z,9.23
2022-08-25T03:05:24.351Z,9.17
2022-08-25T03:09:06.499Z,7.53
2022-08-25T03:12:48.522Z,7.63
2022-08-25T03:16:30.520Z,7.70
2022-08-25T03:20:13.082Z,7.03
2022-08-25T03:23:55.430Z,7.55
2022-08-25T03:27:37.306Z,9.18
2022-08-25T03:31:19.351Z,8.05
2022-08-25T03:35:02.102Z,7.43
2022-08-25T03:38:44.190Z,6.80
2022-08-25T03:42:26.444Z,7.20
2022-08-25T03:46:08.491Z,8.82
2022-08-25T03:49:50.581Z,6.47
2022-08-25T03:53:32.472Z,7.47
2022-08-25T03:57:14.408Z,6.78
2022-08-25T04:01:00.505Z,8.98
2022-08-25T04:04:42.511Z,7.43
2022-08-25T04:08:24.574Z,8.70
2022-08-25T04:12:06.699Z,7.00
2022-08-25T04:15:48.994Z,8.27
2022-08-25T04:19:30.954Z,6.17
2022-08-25T04:23:13.312Z,6.78
2022-08-25T04:26:55.286Z,5.50
2022-08-25T04:30:41.669Z,7.20
2022-08-25T04:34:30.371Z,6.25
2022-08-25T04:38:13.219Z,8.02
2022-08-25T04:41:55.417Z,5.53
2022-08-25T04:45:40.928Z,8.32
2022-08-25T04:49:23.453Z,5.03
2022-08-25T04:53:05.715Z,5.82
2022-08-25T04:56:48.389Z,5.00
2022-08-25T05:00:30.366Z,6.20
2022-08-25T05:04:28.080Z,4.90
2022-08-25T05:08:10.655Z,5.03
2022-08-25T05:11:53.688Z,4.63
2022-08-25T05:15:51.060Z,5.03
2022-08-25T05:19:33.066Z,3.20
2022-08-25T05:23:15.803Z,5.28
2022-08-25T05:26:58.467Z,4.43
2022-08-25T05:30:41.937Z,4.25
2022-08-25T05:34:24.917Z,3.50
2022-08-25T05:38:06.915Z,4.60
2022-08-25T05:41:48.870Z,3.20
2022-08-25T05:45:31.903Z,2.93
2022-08-25T05:49:13.882Z,3.42
2022-08-25T05:52:55.945Z,3.33
2022-08-25T05:56:37.867Z,3.25
2022-08-25T06:00:20.091Z,6.43
2022-08-25T06:04:02.303Z,4.65
2022-08-25T06:07:45.625Z,5.57
2022-08-25T06:11:27.864Z,8.13
2022-08-25T06:15:11.289Z,5.38
2022-08-25T06:18:53.580Z,4.07
2022-08-25T06:22:35.881Z,4.37
2022-08-25T06:26:21.043Z,4.20
2022-08-25T06:30:07.963Z,4.55
2022-08-25T06:33:51.483Z,3.92
2022-08-25T06:37:33.405Z,4.57
2022-08-25T06:41:16.705Z,4.03
2022-08-25T06:44:58.834Z,4.82
2022-08-25T06:48:57.573Z,4.63
2022-08-25T06:52:39.627Z,5.38
2022-08-25T06:56:22.444Z,6.07
2022-08-25T07:04:28.177Z,6.10
2022-08-25T07:08:27.068Z,5.18
2022-08-25T07:12:09.185Z,3.95
2022-08-25T07:16:20.570Z,6.20
2022-08-25T07:20:03.497Z,5.57
2022-08-25T07:24:13.127Z,4.88
2022-08-25T07:27:58.680Z,4.67
2022-08-25T07:32:06.081Z,4.45
2022-08-25T07:35:48.037Z,4.32
2022-08-25T07:43:41.843Z,4.22
2022-08-25T07:47:53.894Z,3.60
2022-08-25T07:51:35.959Z,5.55
2022-08-25T07:55:45.208Z,4.55
2022-08-25T07:59:29.360Z,3.80
2022-08-25T08:11:54.528Z,4.38
2022-08-25T08:16:02.211Z,5.05
2022-08-25T08:19:45.248Z,4.60
2022-08-25T08:23:58.848Z,4.75
2022-08-25T08:27:43.963Z,4.93
2022-08-25T08:35:29.399Z,5.18
2022-08-25T08:39:40.945Z,4.10
2022-08-25T08:43:25.055Z,4.20
2022-08-25T08:47:33.963Z,5.47
2022-08-25T08:51:40.470Z,4.53
2022-08-25T08:55:50.540Z,5.45
2022-08-25T09:00:00.726Z,4.40
2022-08-25T09:03:54.982Z,5.10
2022-08-25T09:07:54.761Z,5.00
2022-08-25T09:26:10.729Z,6.65
2022-08-25T09:30:24.889Z,5.47
2022-08-25T09:38:19.644Z,6.03
2022-08-25T09:42:01.619Z,6.40
2022-08-25T09:46:30.074Z,6.20
2022-08-25T09:50:59.698Z,7.15
2022-08-25T09:55:32.410Z,7.22
2022-08-25T10:00:00.942Z,5.80
2022-08-25T10:04:30.960Z,5.63
2022-08-25T10:09:01.951Z,5.95
2022-08-25T10:13:31.689Z,6.40
2022-08-25T10:21:24.599Z,5.50
2022-08-25T10:25:57.726Z,8.27
2022-08-25T10:30:04.450Z,7.72
2022-08-25T10:34:35.669Z,7.75
2022-08-25T10:43:44.228Z,9.60
2022-08-25T10:52:45.447Z,8.73
2022-08-25T11:01:46.508Z,8.50
2022-08-25T11:06:16.705Z,8.23
2022-08-25T11:10:48.016Z,8.03
2022-08-25T11:15:17.327Z,9.48
2022-08-25T11:19:48.014Z,9.68
2022-08-25T11:24:18.346Z,7.07
2022-08-25T11:28:48.642Z,7.10
2022-08-25T11:33:19.489Z,7.60
2022-08-25T12:05:05.757Z,7.78
2022-08-25T12:23:14.155Z,6.80
2022-08-25T13:51:06.466Z,4.28
2022-08-25T14:14:43.566Z,3.30
2022-08-25T14:28:13.769Z,4.07
2022-08-25T14:41:46.317Z,4.43
2022-08-25T14:46:15.606Z,4.50
2022-08-25T14:50:43.930Z,4.30
2022-08-25T15:35:51.044Z,4.25
2022-08-25T15:58:24.283Z,5.77
2022-08-25T17:03:44.247Z,4.63
2022-08-25T17:12:43.099Z,5.72
2022-08-25T17:17:11.262Z,7.13
2022-08-25T17:30:42.913Z,9.87
2022-08-25T17:39:46.204Z,10.93
2022-08-25T18:03:25.809Z,9.93
2022-08-25T18:07:56.113Z,7.57
2022-08-25T18:12:36.780Z,7.68
2022-08-25T18:21:30.302Z,9.00
2022-08-25T19:07:23.448Z,9.27
2022-08-25T19:16:17.898Z,7.57
2022-08-25T19:20:03.093Z,8.50
2022-08-25T19:23:46.290Z,8.23
2022-08-25T19:27:28.680Z,10.02
2022-08-25T19:31:10.745Z,9.00
2022-08-25T19:34:54.861Z,9.23
2022-08-25T19:38:38.346Z,9.70
2022-08-25T19:42:37.319Z,8.07
2022-08-25T19:46:20.955Z,12.05
2022-08-25T19:50:03.006Z,10.38
2022-08-25T19:53:44.959Z,8.55
2022-08-25T19:57:28.413Z,6.95
2022-08-25T20:01:24.760Z,8.65
2022-08-25T20:05:07.533Z,8.27
2022-08-25T20:08:59.022Z,7.57
2022-08-25T20:12:44.737Z,13.07
2022-08-25T20:16:28.265Z,10.85
2022-08-25T20:20:13.058Z,8.77
2022-08-25T20:24:13.739Z,6.47
2022-08-25T20:27:56.510Z,8.05
2022-08-25T20:31:39.364Z,8.75
2022-08-25T20:35:26.473Z,12.07
2022-08-25T20:39:09.588Z,8.10
2022-08-25T20:42:51.770Z,5.97
2022-08-25T20:46:34.876Z,11.03
2022-08-25T20:50:20.575Z,11.20
2022-08-25T20:54:02.768Z,6.60
2022-08-25T20:57:45.119Z,7.47
2022-08-25T21:01:37.950Z,7.28
2022-08-25T21:05:21.814Z,7.55
2022-08-25T21:09:14.232Z,6.68
2022-08-25T21:12:58.169Z,10.27
2022-08-25T21:16:41.142Z,9.40
2022-08-25T21:20:24.986Z,8.35
2022-08-25T21:24:09.769Z,10.50
2022-08-25T21:27:52.102Z,8.77
2022-08-25T21:31:35.202Z,10.13
2022-08-25T21:35:17.200Z,10.97
2022-08-25T21:39:00.352Z,9.10
2022-08-25T21:42:42.302Z,8.82
2022-08-25T21:46:27.368Z,7.40
2022-08-25T21:50:12.120Z,11.88
2022-08-25T21:54:10.113Z,7.65
2022-08-25T21:57:53.034Z,10.23
2022-08-25T22:01:35.749Z,7.90
2022-08-25T22:05:18.231Z,9.50
2022-08-25T22:09:00.722Z,12.00
2022-08-25T22:12:42.911Z,9.57
2022-08-25T22:16:24.906Z,7.18
2022-08-25T22:20:08.007Z,9.27
2022-08-25T22:23:51.023Z,9.40
2022-08-25T22:27:33.434Z,11.70
2022-08-25T22:31:20.877Z,8.00
2022-08-25T22:35:03.125Z,8.43
2022-08-25T22:38:46.082Z,10.97
2022-08-25T22:42:28.057Z,10.68
2022-08-25T22:46:12.751Z,14.35
2022-08-25T22:49:55.827Z,10.43
2022-08-25T22:53:39.465Z,12.82
2022-08-25T22:57:21.473Z,10.48
2022-08-25T23:01:04.671Z,9.57
2022-08-25T23:04:46.885Z,8.82
2022-08-25T23:08:39.103Z,8.35
2022-08-25T23:12:23.767Z,8.10
2022-08-25T23:16:07.679Z,9.30
2022-08-25T23:19:51.479Z,10.32
2022-08-25T23:23:37.179Z,9.48
2022-08-25T23:27:21.704Z,7.70
2022-08-25T23:31:11.879Z,14.52
2022-08-25T23:34:53.767Z,9.32
2022-08-25T23:38:36.848Z,9.48
2022-08-25T23:42:21.581Z,7.72
2022-08-25T23:46:04.927Z,9.63
2022-08-25T23:49:48.432Z,7.20
2022-08-25T23:53:32.048Z,10.67
2022-08-25T23:57:14.106Z,10.32
